sensor_id;sensor_type;location;lat;lon;timestamp;temperature;humidity
29917;DHT22;16786;49.466;11.068;2023-02-12T00:01:17;4.70;99.90
29917;DHT22;16786;49.466;11.068;2023-02-12T00:03:45;4.80;99.90
29917;DHT22;16786;49.466;11.068;2023-02-12T00:06:13;4.80;99.90
29917;DHT22;16786;49.466;11.068;2023-02-12T00:08:42;4.80;99.90
29917;DHT22;16786;49.466;11.068;2023-02-12T00:11:11;4.80;99.90
29917;DHT22;16786;49.466;11.068;2023-02-12T00:13:39;4.80;99.90
29917;DHT22;16786;49.466;11.068;2023-02-12T00:16:09;4.80;99.90
29917;DHT22;16786;49.466;11.068;2023-02-12T00:18:36;4.80;99.90
29917;DHT22;16786;49.466;11.068;2023-02-12T00:21:05;4.80;99.90
29917;DHT22;16786;49.466;11.068;2023-02-12T00:23:36;4.90;99.90
29917;DHT22;16786;49.466;11.068;2023-02-12T00:26:06;4.90;99.90
29917;DHT22;16786;49.466;11.068;2023-02-12T00:28:34;4.90;99.90
29917;DHT22;16786;49.466;11.068;2023-02-12T00:31:14;4.90;99.90
29917;DHT22;16786;49.466;11.068;2023-02-12T00:33:42;4.90;99.90
29917;DHT22;16786;49.466;11.068;2023-02-12T00:36:13;4.90;99.90
29917;DHT22;16786;49.466;11.068;2023-02-12T00:38:41;4.90;99.90
29917;DHT22;16786;49.466;11.068;2023-02-12T00:41:09;4.90;99.90
29917;DHT22;16786;49.466;11.068;2023-02-12T00:43:36;4.90;99.90
29917;DHT22;16786;49.466;11.068;2023-02-12T00:46:04;4.90;99.90
29917;DHT22;16786;49.466;11.068;2023-02-12T00:48:34;4.90;99.90
29917;DHT22;16786;49.466;11.068;2023-02-12T00:51:02;4.90;99.90
29917;DHT22;16786;49.466;11.068;2023-02-12T00:53:29;4.90;99.90
29917;DHT22;16786;49.466;11.068;2023-02-12T00:55:57;4.90;99.90
29917;DHT22;16786;49.466;11.068;2023-02-12T00:58:25;4.90;99.90
29917;DHT22;16786;49.466;11.068;2023-02-12T01:00:52;4.80;99.90
29917;DHT22;16786;49.466;11.068;2023-02-12T01:03:22;4.80;99.90
29917;DHT22;16786;49.466;11.068;2023-02-12T01:05:51;4.80;99.90
29917;DHT22;16786;49.466;11.068;2023-02-12T01:08:20;4.80;99.90
29917;DHT22;16786;49.466;11.068;2023-02-12T01:11:00;4.80;99.90
29917;DHT22;16786;49.466;11.068;2023-02-12T01:13:29;4.80;99.90
29917;DHT22;16786;49.466;11.068;2023-02-12T01:16:08;4.80;99.90
29917;DHT22;16786;49.466;11.068;2023-02-12T01:18:37;4.80;99.90
29917;DHT22;16786;49.466;11.068;2023-02-12T01:21:25;4.80;99.90
29917;DHT22;16786;49.466;11.068;2023-02-12T01:23:54;4.80;99.90
29917;DHT22;16786;49.466;11.068;2023-02-12T01:26:23;4.80;99.90
29917;DHT22;16786;49.466;11.068;2023-02-12T01:28:54;4.80;99.90
29917;DHT22;16786;49.466;11.068;2023-02-12T01:31:23;4.80;99.90
29917;DHT22;16786;49.466;11.068;2023-02-12T01:33:53;4.80;99.90
29917;DHT22;16786;49.466;11.068;2023-02-12T01:36:22;4.80;99.90
29917;DHT22;16786;49.466;11.068;2023-02-12T01:38:50;4.80;99.90
29917;DHT22;16786;49.466;11.068;2023-02-12T01:41:23;4.80;99.90
29917;DHT22;16786;49.466;11.068;2023-02-12T01:46:48;4.80;99.90
29917;DHT22;16786;49.466;11.068;2023-02-12T01:49:21;4.80;99.90
29917;DHT22;16786;49.466;11.068;2023-02-12T01:52:16;4.80;99.90
29917;DHT22;16786;49.466;11.068;2023-02-12T01:54:42;4.80;99.90
29917;DHT22;16786;49.466;11.068;2023-02-12T01:57:12;4.80;99.90
29917;DHT22;16786;49.466;11.068;2023-02-12T01:59:43;4.70;99.90
29917;DHT22;16786;49.466;11.068;2023-02-12T02:02:11;4.70;99.90
29917;DHT22;16786;49.466;11.068;2023-02-12T02:04:49;4.70;99.90
29917;DHT22;16786;49.466;11.068;2023-02-12T02:07:17;4.80;99.90
29917;DHT22;16786;49.466;11.068;2023-02-12T02:09:45;4.70;99.90
29917;DHT22;16786;49.466;11.068;2023-02-12T02:12:12;4.70;99.90
29917;DHT22;16786;49.466;11.068;2023-02-12T02:14:58;4.70;99.90
29917;DHT22;16786;49.466;11.068;2023-02-12T02:26:07;4.70;99.90
29917;DHT22;16786;49.466;11.068;2023-02-12T02:28:53;4.70;99.90
29917;DHT22;16786;49.466;11.068;2023-02-12T02:31:29;4.80;99.90
29917;DHT22;16786;49.466;11.068;2023-02-12T02:34:07;4.80;99.90
29917;DHT22;16786;49.466;11.068;2023-02-12T02:42:55;4.80;99.90
29917;DHT22;16786;49.466;11.068;2023-02-12T02:45:32;4.80;99.90
29917;DHT22;16786;49.466;11.068;2023-02-12T02:50:41;4.80;99.90
29917;DHT22;16786;49.466;11.068;2023-02-12T02:53:18;4.80;99.90
29917;DHT22;16786;49.466;11.068;2023-02-12T02:55:50;4.80;99.90
29917;DHT22;16786;49.466;11.068;2023-02-12T02:58:26;4.80;99.90
29917;DHT22;16786;49.466;11.068;2023-02-12T03:01:02;4.80;99.90
29917;DHT22;16786;49.466;11.068;2023-02-12T03:06:58;4.80;99.90
29917;DHT22;16786;49.466;11.068;2023-02-12T03:09:42;4.80;99.90
29917;DHT22;16786;49.466;11.068;2023-02-12T03:12:16;4.90;99.90
29917;DHT22;16786;49.466;11.068;2023-02-12T03:14:53;4.80;99.90
29917;DHT22;16786;49.466;11.068;2023-02-12T03:17:31;4.80;99.90
29917;DHT22;16786;49.466;11.068;2023-02-12T03:20:35;4.80;99.90
29917;DHT22;16786;49.466;11.068;2023-02-12T03:23:09;4.80;99.90
29917;DHT22;16786;49.466;11.068;2023-02-12T03:25:45;4.80;99.90
29917;DHT22;16786;49.466;11.068;2023-02-12T03:28:19;4.80;99.90
29917;DHT22;16786;49.466;11.068;2023-02-12T03:30:51;4.80;99.90
29917;DHT22;16786;49.466;11.068;2023-02-12T03:33:35;4.80;99.90
29917;DHT22;16786;49.466;11.068;2023-02-12T03:36:34;4.80;99.90
29917;DHT22;16786;49.466;11.068;2023-02-12T03:39:14;4.70;99.90
29917;DHT22;16786;49.466;11.068;2023-02-12T03:41:52;4.70;99.90
29917;DHT22;16786;49.466;11.068;2023-02-12T03:44:43;4.70;99.90
29917;DHT22;16786;49.466;11.068;2023-02-12T03:50:20;4.70;99.90
29917;DHT22;16786;49.466;11.068;2023-02-12T03:52:51;4.70;99.90
29917;DHT22;16786;49.466;11.068;2023-02-12T03:55:19;4.70;99.90
29917;DHT22;16786;49.466;11.068;2023-02-12T03:57:56;4.80;99.90
29917;DHT22;16786;49.466;11.068;2023-02-12T04:00:26;4.70;99.90
29917;DHT22;16786;49.466;11.068;2023-02-12T04:02:54;4.70;99.90
29917;DHT22;16786;49.466;11.068;2023-02-12T04:05:24;4.70;99.90
29917;DHT22;16786;49.466;11.068;2023-02-12T04:07:53;4.70;99.90
29917;DHT22;16786;49.466;11.068;2023-02-12T04:10:28;4.70;99.90
29917;DHT22;16786;49.466;11.068;2023-02-12T04:13:25;4.70;99.90
29917;DHT22;16786;49.466;11.068;2023-02-12T04:15:57;4.70;99.90
29917;DHT22;16786;49.466;11.068;2023-02-12T04:18:45;4.70;99.90
29917;DHT22;16786;49.466;11.068;2023-02-12T04:21:42;4.80;99.90
29917;DHT22;16786;49.466;11.068;2023-02-12T04:24:46;4.80;99.90
29917;DHT22;16786;49.466;11.068;2023-02-12T04:27:22;4.80;99.90
29917;DHT22;16786;49.466;11.068;2023-02-12T04:32:58;4.80;99.90
29917;DHT22;16786;49.466;11.068;2023-02-12T04:38:04;4.80;99.90
29917;DHT22;16786;49.466;11.068;2023-02-12T04:40:35;4.80;99.90
29917;DHT22;16786;49.466;11.068;2023-02-12T04:43:04;4.80;99.90
29917;DHT22;16786;49.466;11.068;2023-02-12T04:45:34;4.80;99.90
29917;DHT22;16786;49.466;11.068;2023-02-12T04:48:02;4.80;99.90
29917;DHT22;16786;49.466;11.068;2023-02-12T04:50:39;4.70;99.90
29917;DHT22;16786;49.466;11.068;2023-02-12T04:53:07;4.70;99.90
29917;DHT22;16786;49.466;11.068;2023-02-12T04:55:35;4.70;99.90
29917;DHT22;16786;49.466;11.068;2023-02-12T04:58:02;4.70;99.90
29917;DHT22;16786;49.466;11.068;2023-02-12T05:00:30;4.70;99.90
29917;DHT22;16786;49.466;11.068;2023-02-12T05:02:57;4.70;99.90
29917;DHT22;16786;49.466;11.068;2023-02-12T05:05:25;4.70;99.90
29917;DHT22;16786;49.466;11.068;2023-02-12T05:07:52;4.70;99.90
29917;DHT22;16786;49.466;11.068;2023-02-12T05:10:19;4.70;99.90
29917;DHT22;16786;49.466;11.068;2023-02-12T05:12:47;4.70;99.90
29917;DHT22;16786;49.466;11.068;2023-02-12T05:15:14;4.60;99.90
29917;DHT22;16786;49.466;11.068;2023-02-12T05:17:41;4.60;99.90
29917;DHT22;16786;49.466;11.068;2023-02-12T05:20:09;4.60;99.90
29917;DHT22;16786;49.466;11.068;2023-02-12T05:22:36;4.60;99.90
29917;DHT22;16786;49.466;11.068;2023-02-12T05:25:04;4.60;99.90
29917;DHT22;16786;49.466;11.068;2023-02-12T05:27:32;4.60;99.90
29917;DHT22;16786;49.466;11.068;2023-02-12T05:29:59;4.60;99.90
29917;DHT22;16786;49.466;11.068;2023-02-12T05:32:26;4.60;99.90
29917;DHT22;16786;49.466;11.068;2023-02-12T05:34:54;4.60;99.90
29917;DHT22;16786;49.466;11.068;2023-02-12T05:37:21;4.60;99.90
29917;DHT22;16786;49.466;11.068;2023-02-12T05:39:49;4.60;99.90
29917;DHT22;16786;49.466;11.068;2023-02-12T05:42:16;4.60;99.90
29917;DHT22;16786;49.466;11.068;2023-02-12T05:44:43;4.60;99.90
29917;DHT22;16786;49.466;11.068;2023-02-12T05:47:11;4.70;99.90
29917;DHT22;16786;49.466;11.068;2023-02-12T05:49:38;4.70;99.90
29917;DHT22;16786;49.466;11.068;2023-02-12T05:52:05;4.70;99.90
29917;DHT22;16786;49.466;11.068;2023-02-12T05:54:32;4.70;99.90
29917;DHT22;16786;49.466;11.068;2023-02-12T05:57:00;4.70;99.90
29917;DHT22;16786;49.466;11.068;2023-02-12T05:59:27;4.80;99.90
29917;DHT22;16786;49.466;11.068;2023-02-12T06:01:54;4.70;99.90
29917;DHT22;16786;49.466;11.068;2023-02-12T06:04:24;4.80;99.90
29917;DHT22;16786;49.466;11.068;2023-02-12T06:06:53;4.80;99.90
29917;DHT22;16786;49.466;11.068;2023-02-12T06:09:22;4.70;99.90
29917;DHT22;16786;49.466;11.068;2023-02-12T06:11:50;4.70;99.90
29917;DHT22;16786;49.466;11.068;2023-02-12T06:14:19;4.70;99.90
29917;DHT22;16786;49.466;11.068;2023-02-12T06:16:48;4.80;99.90
29917;DHT22;16786;49.466;11.068;2023-02-12T06:19:17;4.80;99.90
29917;DHT22;16786;49.466;11.068;2023-02-12T06:21:45;4.80;99.90
29917;DHT22;16786;49.466;11.068;2023-02-12T06:24:14;4.80;99.90
29917;DHT22;16786;49.466;11.068;2023-02-12T06:26:42;4.80;99.90
29917;DHT22;16786;49.466;11.068;2023-02-12T06:29:10;4.80;99.90
29917;DHT22;16786;49.466;11.068;2023-02-12T06:31:37;4.80;99.90
29917;DHT22;16786;49.466;11.068;2023-02-12T06:34:08;4.90;99.90
29917;DHT22;16786;49.466;11.068;2023-02-12T06:36:41;4.90;99.90
29917;DHT22;16786;49.466;11.068;2023-02-12T06:39:12;4.90;99.90
29917;DHT22;16786;49.466;11.068;2023-02-12T06:41:40;4.90;99.90
29917;DHT22;16786;49.466;11.068;2023-02-12T06:44:07;4.90;99.90
29917;DHT22;16786;49.466;11.068;2023-02-12T06:46:34;4.90;99.90
29917;DHT22;16786;49.466;11.068;2023-02-12T06:49:02;4.90;99.90
29917;DHT22;16786;49.466;11.068;2023-02-12T06:51:29;4.90;99.90
29917;DHT22;16786;49.466;11.068;2023-02-12T06:53:57;4.90;99.90
29917;DHT22;16786;49.466;11.068;2023-02-12T06:56:26;4.90;99.90
29917;DHT22;16786;49.466;11.068;2023-02-12T06:58:56;4.90;99.90
29917;DHT22;16786;49.466;11.068;2023-02-12T07:01:26;5.00;99.90
29917;DHT22;16786;49.466;11.068;2023-02-12T07:03:56;5.00;99.90
29917;DHT22;16786;49.466;11.068;2023-02-12T07:06:25;4.90;99.90
29917;DHT22;16786;49.466;11.068;2023-02-12T07:08:53;4.90;99.90
29917;DHT22;16786;49.466;11.068;2023-02-12T07:11:28;4.90;99.90
29917;DHT22;16786;49.466;11.068;2023-02-12T07:13:55;4.90;99.90
29917;DHT22;16786;49.466;11.068;2023-02-12T07:16:23;4.90;99.90
29917;DHT22;16786;49.466;11.068;2023-02-12T07:18:50;4.90;99.90
29917;DHT22;16786;49.466;11.068;2023-02-12T07:21:18;5.00;99.90
29917;DHT22;16786;49.466;11.068;2023-02-12T07:23:47;5.00;99.90
29917;DHT22;16786;49.466;11.068;2023-02-12T07:26:18;4.90;99.90
29917;DHT22;16786;49.466;11.068;2023-02-12T07:28:46;5.00;99.90
29917;DHT22;16786;49.466;11.068;2023-02-12T07:31:19;5.00;99.90
29917;DHT22;16786;49.466;11.068;2023-02-12T07:33:48;5.10;99.90
29917;DHT22;16786;49.466;11.068;2023-02-12T07:36:17;5.10;99.90
29917;DHT22;16786;49.466;11.068;2023-02-12T07:38:45;5.20;99.90
29917;DHT22;16786;49.466;11.068;2023-02-12T07:43:44;5.30;99.90
29917;DHT22;16786;49.466;11.068;2023-02-12T07:46:22;5.30;99.90
29917;DHT22;16786;49.466;11.068;2023-02-12T07:48:52;5.40;99.90
29917;DHT22;16786;49.466;11.068;2023-02-12T07:51:20;5.40;99.90
29917;DHT22;16786;49.466;11.068;2023-02-12T07:53:48;5.50;99.90
29917;DHT22;16786;49.466;11.068;2023-02-12T07:56:18;5.50;99.90
29917;DHT22;16786;49.466;11.068;2023-02-12T07:58:47;5.60;99.90
29917;DHT22;16786;49.466;11.068;2023-02-12T08:01:19;5.70;99.90
29917;DHT22;16786;49.466;11.068;2023-02-12T08:03:47;5.80;99.90
29917;DHT22;16786;49.466;11.068;2023-02-12T08:06:20;5.90;99.90
29917;DHT22;16786;49.466;11.068;2023-02-12T08:08:54;6.00;99.90
29917;DHT22;16786;49.466;11.068;2023-02-12T08:11:23;6.00;99.90
29917;DHT22;16786;49.466;11.068;2023-02-12T08:13:50;5.90;99.90
29917;DHT22;16786;49.466;11.068;2023-02-12T08:16:20;5.90;99.90
29917;DHT22;16786;49.466;11.068;2023-02-12T08:18:48;6.10;99.90
29917;DHT22;16786;49.466;11.068;2023-02-12T08:21:24;6.10;99.90
29917;DHT22;16786;49.466;11.068;2023-02-12T08:23:55;6.30;99.90
29917;DHT22;16786;49.466;11.068;2023-02-12T08:26:28;6.40;99.90
29917;DHT22;16786;49.466;11.068;2023-02-12T08:29:16;6.60;99.90
29917;DHT22;16786;49.466;11.068;2023-02-12T08:31:46;6.70;99.90
29917;DHT22;16786;49.466;11.068;2023-02-12T08:34:20;6.80;99.90
29917;DHT22;16786;49.466;11.068;2023-02-12T08:36:50;7.00;99.90
29917;DHT22;16786;49.466;11.068;2023-02-12T08:39:18;7.10;99.90
29917;DHT22;16786;49.466;11.068;2023-02-12T08:41:46;7.10;99.90
29917;DHT22;16786;49.466;11.068;2023-02-12T08:44:15;7.30;99.90
29917;DHT22;16786;49.466;11.068;2023-02-12T08:46:45;7.50;99.90
29917;DHT22;16786;49.466;11.068;2023-02-12T08:49:15;7.70;99.90
29917;DHT22;16786;49.466;11.068;2023-02-12T08:51:45;7.80;99.90
29917;DHT22;16786;49.466;11.068;2023-02-12T08:54:17;8.00;99.90
29917;DHT22;16786;49.466;11.068;2023-02-12T08:56:44;8.20;99.90
29917;DHT22;16786;49.466;11.068;2023-02-12T08:59:13;8.40;99.90
29917;DHT22;16786;49.466;11.068;2023-02-12T09:01:41;8.60;99.90
29917;DHT22;16786;49.466;11.068;2023-02-12T09:04:17;8.90;99.90
29917;DHT22;16786;49.466;11.068;2023-02-12T09:06:45;9.10;99.90
29917;DHT22;16786;49.466;11.068;2023-02-12T09:09:13;9.00;99.90
29917;DHT22;16786;49.466;11.068;2023-02-12T09:11:41;8.80;99.90
29917;DHT22;16786;49.466;11.068;2023-02-12T09:14:12;8.60;99.90
29917;DHT22;16786;49.466;11.068;2023-02-12T09:16:40;8.40;99.90
29917;DHT22;16786;49.466;11.068;2023-02-12T09:19:11;8.30;99.90
29917;DHT22;16786;49.466;11.068;2023-02-12T09:21:39;8.30;99.90
29917;DHT22;16786;49.466;11.068;2023-02-12T09:24:07;8.20;99.90
29917;DHT22;16786;49.466;11.068;2023-02-12T09:26:35;8.10;99.90
29917;DHT22;16786;49.466;11.068;2023-02-12T09:29:04;8.10;99.90
29917;DHT22;16786;49.466;11.068;2023-02-12T09:31:32;7.90;99.90
29917;DHT22;16786;49.466;11.068;2023-02-12T09:34:02;7.80;99.90
29917;DHT22;16786;49.466;11.068;2023-02-12T09:36:30;7.60;99.90
29917;DHT22;16786;49.466;11.068;2023-02-12T09:38:58;7.60;99.90
29917;DHT22;16786;49.466;11.068;2023-02-12T09:50:56;7.60;99.90
29917;DHT22;16786;49.466;11.068;2023-02-12T09:53:28;7.60;99.90
29917;DHT22;16786;49.466;11.068;2023-02-12T09:55:56;7.60;99.90
29917;DHT22;16786;49.466;11.068;2023-02-12T09:58:32;7.50;99.90
29917;DHT22;16786;49.466;11.068;2023-02-12T10:01:10;7.60;99.90
29917;DHT22;16786;49.466;11.068;2023-02-12T10:03:39;7.70;99.90
29917;DHT22;16786;49.466;11.068;2023-02-12T10:06:13;7.80;99.90
29917;DHT22;16786;49.466;11.068;2023-02-12T10:11:49;8.10;99.90
29917;DHT22;16786;49.466;11.068;2023-02-12T10:14:56;8.30;99.90
29917;DHT22;16786;49.466;11.068;2023-02-12T10:17:59;8.50;99.90
29917;DHT22;16786;49.466;11.068;2023-02-12T10:20:47;8.70;99.90
29917;DHT22;16786;49.466;11.068;2023-02-12T10:23:51;8.80;99.90
29917;DHT22;16786;49.466;11.068;2023-02-12T10:26:40;9.00;99.90
29917;DHT22;16786;49.466;11.068;2023-02-12T10:29:23;9.20;99.90
29917;DHT22;16786;49.466;11.068;2023-02-12T10:31:58;9.50;99.90
29917;DHT22;16786;49.466;11.068;2023-02-12T10:34:32;9.40;99.90
29917;DHT22;16786;49.466;11.068;2023-02-12T10:39:43;9.30;99.90
29917;DHT22;16786;49.466;11.068;2023-02-12T10:42:23;9.20;99.90
29917;DHT22;16786;49.466;11.068;2023-02-12T10:44:57;9.10;99.90
29917;DHT22;16786;49.466;11.068;2023-02-12T10:47:24;9.10;99.90
29917;DHT22;16786;49.466;11.068;2023-02-12T10:49:58;9.10;99.90
29917;DHT22;16786;49.466;11.068;2023-02-12T10:54:54;9.10;99.90
29917;DHT22;16786;49.466;11.068;2023-02-12T10:57:22;9.10;99.90
29917;DHT22;16786;49.466;11.068;2023-02-12T10:59:56;9.00;99.90
29917;DHT22;16786;49.466;11.068;2023-02-12T11:02:39;8.80;99.90
29917;DHT22;16786;49.466;11.068;2023-02-12T11:05:27;8.50;99.90
29917;DHT22;16786;49.466;11.068;2023-02-12T11:07:55;8.40;99.90
29917;DHT22;16786;49.466;11.068;2023-02-12T11:10:35;8.50;99.90
29917;DHT22;16786;49.466;11.068;2023-02-12T11:13:03;8.20;99.90
29917;DHT22;16786;49.466;11.068;2023-02-12T11:15:37;8.30;99.90
29917;DHT22;16786;49.466;11.068;2023-02-12T11:20:50;8.40;99.90
29917;DHT22;16786;49.466;11.068;2023-02-12T11:23:33;8.40;99.90
29917;DHT22;16786;49.466;11.068;2023-02-12T11:26:06;8.30;99.90
29917;DHT22;16786;49.466;11.068;2023-02-12T11:28:35;8.30;99.90
29917;DHT22;16786;49.466;11.068;2023-02-12T11:31:20;8.30;99.90
29917;DHT22;16786;49.466;11.068;2023-02-12T11:34:15;8.20;99.90
29917;DHT22;16786;49.466;11.068;2023-02-12T11:36:48;8.20;99.90
29917;DHT22;16786;49.466;11.068;2023-02-12T11:39:23;7.60;99.90
29917;DHT22;16786;49.466;11.068;2023-02-12T11:41:55;7.90;99.90
29917;DHT22;16786;49.466;11.068;2023-02-12T11:44:36;8.10;99.90
29917;DHT22;16786;49.466;11.068;2023-02-12T11:47:08;8.30;99.90
29917;DHT22;16786;49.466;11.068;2023-02-12T11:49:47;8.40;99.90
29917;DHT22;16786;49.466;11.068;2023-02-12T11:52:27;8.30;99.90
29917;DHT22;16786;49.466;11.068;2023-02-12T11:54:58;7.90;99.90
29917;DHT22;16786;49.466;11.068;2023-02-12T12:00:21;7.90;99.90
29917;DHT22;16786;49.466;11.068;2023-02-12T12:03:20;8.00;99.90
29917;DHT22;16786;49.466;11.068;2023-02-12T12:05:59;8.00;99.90
29917;DHT22;16786;49.466;11.068;2023-02-12T12:08:44;7.80;99.90
29917;DHT22;16786;49.466;11.068;2023-02-12T12:11:24;7.80;99.90
29917;DHT22;16786;49.466;11.068;2023-02-12T12:17:12;7.90;99.90
29917;DHT22;16786;49.466;11.068;2023-02-12T12:20:09;8.00;99.90
29917;DHT22;16786;49.466;11.068;2023-02-12T12:25:29;8.30;99.90
29917;DHT22;16786;49.466;11.068;2023-02-12T12:31:12;8.70;99.90
29917;DHT22;16786;49.466;11.068;2023-02-12T12:33:50;8.90;99.90
29917;DHT22;16786;49.466;11.068;2023-02-12T12:56:22;8.50;99.90
29917;DHT22;16786;49.466;11.068;2023-02-12T13:13:40;10.30;99.90
29917;DHT22;16786;49.466;11.068;2023-02-12T13:16:29;10.40;99.90
29917;DHT22;16786;49.466;11.068;2023-02-12T13:19:27;10.40;99.90
29917;DHT22;16786;49.466;11.068;2023-02-12T13:22:09;10.50;99.90
29917;DHT22;16786;49.466;11.068;2023-02-12T13:27:47;10.40;99.90
29917;DHT22;16786;49.466;11.068;2023-02-12T13:30:23;10.20;99.90
29917;DHT22;16786;49.466;11.068;2023-02-12T13:33:08;10.20;99.90
29917;DHT22;16786;49.466;11.068;2023-02-12T13:35:42;10.30;99.90
29917;DHT22;16786;49.466;11.068;2023-02-12T13:38:20;10.30;99.90
29917;DHT22;16786;49.466;11.068;2023-02-12T13:40:51;10.40;99.90
29917;DHT22;16786;49.466;11.068;2023-02-12T13:49:23;10.60;99.90
29917;DHT22;16786;49.466;11.068;2023-02-12T13:51:53;10.70;99.90
29917;DHT22;16786;49.466;11.068;2023-02-12T13:54:56;10.60;99.90
29917;DHT22;16786;49.466;11.068;2023-02-12T13:57:23;10.60;99.90
29917;DHT22;16786;49.466;11.068;2023-02-12T13:59:52;10.40;99.90
29917;DHT22;16786;49.466;11.068;2023-02-12T14:05:01;10.30;99.90
29917;DHT22;16786;49.466;11.068;2023-02-12T14:10:32;10.50;99.90
29917;DHT22;16786;49.466;11.068;2023-02-12T14:15:51;10.50;99.90
29917;DHT22;16786;49.466;11.068;2023-02-12T14:18:26;10.70;99.90
29917;DHT22;16786;49.466;11.068;2023-02-12T14:23:41;10.70;99.90
29917;DHT22;16786;49.466;11.068;2023-02-12T14:26:20;10.70;99.90
29917;DHT22;16786;49.466;11.068;2023-02-12T14:29:15;10.70;99.90
29917;DHT22;16786;49.466;11.068;2023-02-12T14:31:47;11.30;99.90
29917;DHT22;16786;49.466;11.068;2023-02-12T14:36:44;13.00;99.90
29917;DHT22;16786;49.466;11.068;2023-02-12T14:41:47;14.20;99.90
29917;DHT22;16786;49.466;11.068;2023-02-12T14:47:05;14.90;99.90
29917;DHT22;16786;49.466;11.068;2023-02-12T14:49:51;16.00;99.90
29917;DHT22;16786;49.466;11.068;2023-02-12T14:52:25;17.30;99.90
29917;DHT22;16786;49.466;11.068;2023-02-12T14:54:54;17.80;99.90
29917;DHT22;16786;49.466;11.068;2023-02-12T14:57:31;17.20;99.90
29917;DHT22;16786;49.466;11.068;2023-02-12T15:00:20;18.00;99.90
29917;DHT22;16786;49.466;11.068;2023-02-12T15:02:52;18.90;99.90
29917;DHT22;16786;49.466;11.068;2023-02-12T15:05:24;19.40;99.90
29917;DHT22;16786;49.466;11.068;2023-02-12T15:07:56;19.50;99.90
29917;DHT22;16786;49.466;11.068;2023-02-12T15:10:38;19.70;99.90
29917;DHT22;16786;49.466;11.068;2023-02-12T15:13:26;20.30;99.90
29917;DHT22;16786;49.466;11.068;2023-02-12T15:16:03;20.10;99.90
29917;DHT22;16786;49.466;11.068;2023-02-12T15:18:47;20.10;99.90
29917;DHT22;16786;49.466;11.068;2023-02-12T15:21:29;21.00;99.90
29917;DHT22;16786;49.466;11.068;2023-02-12T15:26:44;20.30;99.90
29917;DHT22;16786;49.466;11.068;2023-02-12T15:29:20;20.30;99.90
29917;DHT22;16786;49.466;11.068;2023-02-12T15:31:54;20.50;99.90
29917;DHT22;16786;49.466;11.068;2023-02-12T15:34:25;20.00;99.90
29917;DHT22;16786;49.466;11.068;2023-02-12T15:36:58;18.80;99.90
29917;DHT22;16786;49.466;11.068;2023-02-12T15:39:26;17.90;99.90
29917;DHT22;16786;49.466;11.068;2023-02-12T15:41:57;17.70;99.90
29917;DHT22;16786;49.466;11.068;2023-02-12T15:44:27;17.80;99.90
29917;DHT22;16786;49.466;11.068;2023-02-12T15:49:36;18.00;99.90
29917;DHT22;16786;49.466;11.068;2023-02-12T15:52:09;17.10;99.90
29917;DHT22;16786;49.466;11.068;2023-02-12T15:54:38;17.00;99.90
29917;DHT22;16786;49.466;11.068;2023-02-12T15:57:10;16.50;99.90
29917;DHT22;16786;49.466;11.068;2023-02-12T15:59:39;15.30;99.90
29917;DHT22;16786;49.466;11.068;2023-02-12T16:02:19;14.80;99.90
29917;DHT22;16786;49.466;11.068;2023-02-12T16:04:47;15.10;99.90
29917;DHT22;16786;49.466;11.068;2023-02-12T16:07:15;14.80;99.90
29917;DHT22;16786;49.466;11.068;2023-02-12T16:09:44;13.50;99.90
29917;DHT22;16786;49.466;11.068;2023-02-12T16:12:13;13.10;99.90
29917;DHT22;16786;49.466;11.068;2023-02-12T16:14:46;12.80;99.90
29917;DHT22;16786;49.466;11.068;2023-02-12T16:17:47;12.10;99.90
29917;DHT22;16786;49.466;11.068;2023-02-12T16:22:48;10.90;99.90
29917;DHT22;16786;49.466;11.068;2023-02-12T16:28:03;9.70;99.90
29917;DHT22;16786;49.466;11.068;2023-02-12T16:30:39;9.30;99.90
29917;DHT22;16786;49.466;11.068;2023-02-12T16:36:30;8.50;99.90
29917;DHT22;16786;49.466;11.068;2023-02-12T16:39:05;8.10;99.90
29917;DHT22;16786;49.466;11.068;2023-02-12T16:41:50;7.80;99.90
29917;DHT22;16786;49.466;11.068;2023-02-12T16:44:23;7.50;99.90
29917;DHT22;16786;49.466;11.068;2023-02-12T16:46:55;7.20;99.90
29917;DHT22;16786;49.466;11.068;2023-02-12T16:49:24;7.00;99.90
29917;DHT22;16786;49.466;11.068;2023-02-12T16:51:54;6.80;99.90
29917;DHT22;16786;49.466;11.068;2023-02-12T16:54:39;6.70;99.90
29917;DHT22;16786;49.466;11.068;2023-02-12T16:57:09;6.50;99.90
29917;DHT22;16786;49.466;11.068;2023-02-12T16:59:37;6.30;99.90
29917;DHT22;16786;49.466;11.068;2023-02-12T17:02:10;6.10;99.90
29917;DHT22;16786;49.466;11.068;2023-02-12T17:04:39;6.00;99.90
29917;DHT22;16786;49.466;11.068;2023-02-12T17:07:19;5.90;99.90
29917;DHT22;16786;49.466;11.068;2023-02-12T17:09:47;5.80;99.90
29917;DHT22;16786;49.466;11.068;2023-02-12T17:12:15;5.60;99.90
29917;DHT22;16786;49.466;11.068;2023-02-12T17:14:44;5.60;99.90
29917;DHT22;16786;49.466;11.068;2023-02-12T17:17:11;5.50;99.90
29917;DHT22;16786;49.466;11.068;2023-02-12T17:19:39;5.40;99.90
29917;DHT22;16786;49.466;11.068;2023-02-12T17:22:14;5.30;99.90
29917;DHT22;16786;49.466;11.068;2023-02-12T17:24:43;5.30;99.90
29917;DHT22;16786;49.466;11.068;2023-02-12T17:27:15;5.20;99.90
29917;DHT22;16786;49.466;11.068;2023-02-12T17:29:43;5.10;99.90
29917;DHT22;16786;49.466;11.068;2023-02-12T17:32:11;5.20;99.90
29917;DHT22;16786;49.466;11.068;2023-02-12T17:34:38;5.20;99.90
29917;DHT22;16786;49.466;11.068;2023-02-12T17:37:16;5.20;99.90
29917;DHT22;16786;49.466;11.068;2023-02-12T17:39:44;5.20;99.90
29917;DHT22;16786;49.466;11.068;2023-02-12T17:42:11;5.30;99.90
29917;DHT22;16786;49.466;11.068;2023-02-12T17:44:38;5.30;99.90
29917;DHT22;16786;49.466;11.068;2023-02-12T17:47:06;5.40;99.90
29917;DHT22;16786;49.466;11.068;2023-02-12T17:49:34;5.40;99.90
29917;DHT22;16786;49.466;11.068;2023-02-12T17:52:01;5.50;99.90
29917;DHT22;16786;49.466;11.068;2023-02-12T17:54:32;5.50;99.90
29917;DHT22;16786;49.466;11.068;2023-02-12T17:56:59;5.50;99.90
29917;DHT22;16786;49.466;11.068;2023-02-12T17:59:26;5.50;99.90
29917;DHT22;16786;49.466;11.068;2023-02-12T18:01:54;5.50;99.90
29917;DHT22;16786;49.466;11.068;2023-02-12T18:04:21;5.50;99.90
29917;DHT22;16786;49.466;11.068;2023-02-12T18:06:49;5.50;99.90
29917;DHT22;16786;49.466;11.068;2023-02-12T18:09:16;5.50;99.90
29917;DHT22;16786;49.466;11.068;2023-02-12T18:11:43;5.50;99.90
29917;DHT22;16786;49.466;11.068;2023-02-12T18:14:11;5.50;99.90
29917;DHT22;16786;49.466;11.068;2023-02-12T18:16:38;5.50;99.90
29917;DHT22;16786;49.466;11.068;2023-02-12T18:19:05;5.50;99.90
29917;DHT22;16786;49.466;11.068;2023-02-12T18:21:33;5.60;99.90
29917;DHT22;16786;49.466;11.068;2023-02-12T18:24:01;5.60;99.90
29917;DHT22;16786;49.466;11.068;2023-02-12T18:26:29;5.60;99.90